createdAt,value
2022-08-26T00:00:07.455Z,21.38
2022-08-26T00:02:40.194Z,22.45
2022-08-26T00:05:08.592Z,22.01
2022-08-26T00:07:39.350Z,22.85
2022-08-26T00:10:10.021Z,22.37
2022-08-26T00:12:39.617Z,22.18
2022-08-26T00:15:09.196Z,22.78
2022-08-26T00:17:41.143Z,21.79
2022-08-26T00:20:12.516Z,22.42
2022-08-26T00:22:42.171Z,20.42
2022-08-26T00:25:10.795Z,21.63
2022-08-26T00:27:37.798Z,21.91
2022-08-26T00:30:09.820Z,22.12
2022-08-26T00:32:37.589Z,22.51
2022-08-26T00:35:09.656Z,21.63
2022-08-26T00:37:41.159Z,22.48
2022-08-26T00:40:17.305Z,21.50
2022-08-26T00:42:46.930Z,22.09
2022-08-26T00:45:17.891Z,22.33
2022-08-26T00:47:53.795Z,22.31
2022-08-26T00:50:26.443Z,21.14
2022-08-26T00:52:55.196Z,20.81
2022-08-26T00:55:38.225Z,22.06
2022-08-26T00:58:06.171Z,22.25
2022-08-26T01:00:35.041Z,21.87
2022-08-26T01:03:03.570Z,22.24
2022-08-26T01:05:32.600Z,21.84
2022-08-26T01:07:59.380Z,21.17
2022-08-26T01:10:30.165Z,21.79
2022-08-26T01:13:05.090Z,21.37
2022-08-26T01:15:37.700Z,21.97
2022-08-26T01:18:07.565Z,21.88
2022-08-26T01:20:40.231Z,22.04
2022-08-26T01:23:10.964Z,21.54
2022-08-26T01:25:43.115Z,21.82
2022-08-26T01:28:17.178Z,21.94
2022-08-26T01:30:45.561Z,21.90
2022-08-26T01:33:19.585Z,21.79
2022-08-26T01:35:50.034Z,21.69
2022-08-26T01:38:19.935Z,21.01
2022-08-26T01:40:47.106Z,21.69
2022-08-26T01:43:19.707Z,20.24
2022-08-26T01:45:54.577Z,21.50
2022-08-26T01:48:24.918Z,21.49
2022-08-26T01:50:52.279Z,20.41
2022-08-26T01:53:21.432Z,20.85
2022-08-26T01:55:51.927Z,21.14
2022-08-26T01:58:23.694Z,20.49
2022-08-26T02:00:51.761Z,21.44
2022-08-26T02:03:21.427Z,21.10
2022-08-26T02:05:59.531Z,20.85
2022-08-26T02:08:39.990Z,19.30
2022-08-26T02:11:07.561Z,20.46
2022-08-26T02:13:39.098Z,20.90
2022-08-26T02:16:08.448Z,20.19
2022-08-26T02:18:39.519Z,21.27
2022-08-26T02:21:10.107Z,20.46
2022-08-26T02:23:37.124Z,21.30
2022-08-26T02:26:20.194Z,21.26
2022-08-26T02:28:57.379Z,21.00
2022-08-26T02:31:25.514Z,21.13
2022-08-26T02:33:52.376Z,19.41
2022-08-26T02:36:28.532Z,21.05
2022-08-26T02:38:56.257Z,20.83
2022-08-26T02:41:23.589Z,20.95
2022-08-26T02:43:51.763Z,20.13
2022-08-26T02:46:21.452Z,20.84
2022-08-26T02:48:58.450Z,19.61
2022-08-26T02:51:31.485Z,20.46
2022-08-26T02:54:00.260Z,20.45
2022-08-26T02:56:29.323Z,20.59
2022-08-26T02:58:56.405Z,20.77
2022-08-26T03:01:29.921Z,20.82
2022-08-26T03:03:58.008Z,20.83
2022-08-26T03:06:25.133Z,19.46
2022-08-26T03:08:52.896Z,20.94
2022-08-26T03:11:20.018Z,21.06
2022-08-26T03:13:47.007Z,21.13
2022-08-26T03:16:40.648Z,21.18
2022-08-26T03:19:09.979Z,21.17
2022-08-26T03:21:39.945Z,20.72
2022-08-26T03:24:14.342Z,19.96
2022-08-26T03:26:41.388Z,20.93
2022-08-26T03:29:41.664Z,20.61
2022-08-26T03:32:09.411Z,21.20
2022-08-26T03:34:37.601Z,19.50
2022-08-26T03:37:09.211Z,20.87
2022-08-26T03:39:36.992Z,20.59
2022-08-26T03:42:04.328Z,21.62
2022-08-26T03:44:34.651Z,21.62
2022-08-26T03:47:06.323Z,21.68
2022-08-26T03:49:37.246Z,20.62
2022-08-26T03:52:05.096Z,21.04
2022-08-26T03:54:34.502Z,21.43
2022-08-26T03:57:02.219Z,21.83
2022-08-26T03:59:29.207Z,18.36
2022-08-26T04:01:59.121Z,21.63
2022-08-26T04:04:26.166Z,19.74
2022-08-26T04:06:58.457Z,21.85
2022-08-26T04:09:27.470Z,21.81
2022-08-26T04:11:55.405Z,19.55
2022-08-26T04:14:25.548Z,21.42
2022-08-26T04:16:54.018Z,21.25
2022-08-26T04:19:23.862Z,21.78
2022-08-26T04:21:53.969Z,21.74
2022-08-26T04:24:29.457Z,20.99
2022-08-26T04:26:56.696Z,21.41
2022-08-26T04:29:25.785Z,19.99
2022-08-26T04:32:01.708Z,20.98
2022-08-26T04:34:30.145Z,20.09
2022-08-26T04:36:58.018Z,21.81
2022-08-26T04:39:28.582Z,20.85
2022-08-26T04:41:57.842Z,21.88
2022-08-26T04:44:30.185Z,21.64
2022-08-26T04:46:58.499Z,18.93
2022-08-26T04:49:25.960Z,20.33
2022-08-26T04:51:53.536Z,21.91
2022-08-26T04:54:21.745Z,21.78
2022-08-26T04:56:50.642Z,21.80
2022-08-26T04:59:19.027Z,20.51
2022-08-26T05:01:48.708Z,21.11
2022-08-26T05:04:18.958Z,20.26
2022-08-26T05:06:54.057Z,21.24
2022-08-26T05:09:23.756Z,20.25
2022-08-26T05:11:52.438Z,21.97
2022-08-26T05:14:22.327Z,22.01
2022-08-26T05:16:49.570Z,22.00
2022-08-26T05:19:19.792Z,22.01
2022-08-26T05:21:48.815Z,21.99
2022-08-26T05:24:16.560Z,22.06
2022-08-26T05:26:44.434Z,19.35
2022-08-26T05:29:13.922Z,21.22
2022-08-26T05:31:41.149Z,22.20
2022-08-26T05:34:08.450Z,21.12
2022-08-26T05:36:38.057Z,20.67
2022-08-26T05:39:06.159Z,22.41
2022-08-26T05:41:36.771Z,21.34
2022-08-26T05:44:11.555Z,22.26
2022-08-26T05:46:39.845Z,22.01
2022-08-26T05:49:12.993Z,21.75
2022-08-26T05:51:41.607Z,22.41
2022-08-26T05:54:10.368Z,20.01
2022-08-26T05:56:38.688Z,22.37
2022-08-26T05:59:06.524Z,22.51
2022-08-26T06:01:42.372Z,21.66
2022-08-26T06:04:09.567Z,22.65
2022-08-26T06:06:41.304Z,22.75
2022-08-26T06:09:11.075Z,22.45
2022-08-26T06:11:39.215Z,22.66
2022-08-26T06:14:08.607Z,22.33
2022-08-26T06:16:38.636Z,21.08
2022-08-26T06:19:12.987Z,21.24
2022-08-26T06:21:42.322Z,22.71
2022-08-26T06:24:32.394Z,21.84
2022-08-26T06:27:05.092Z,22.53
2022-08-26T06:29:36.118Z,22.63
2022-08-26T06:32:04.561Z,21.90
2022-08-26T06:34:32.774Z,22.28
2022-08-26T06:37:02.848Z,23.28
2022-08-26T06:39:34.131Z,22.77
2022-08-26T06:42:03.069Z,23.57
2022-08-26T06:44:34.370Z,23.64
2022-08-26T06:47:02.467Z,23.21
2022-08-26T06:49:29.367Z,22.66
2022-08-26T06:52:01.395Z,23.21
2022-08-26T06:54:32.125Z,23.72
2022-08-26T06:56:59.361Z,22.35
2022-08-26T06:59:26.745Z,23.70
2022-08-26T07:01:54.650Z,23.63
2022-08-26T07:04:23.184Z,23.02
2022-08-26T07:06:52.488Z,23.41
2022-08-26T07:09:22.198Z,23.36
2022-08-26T07:11:51.285Z,23.51
2022-08-26T07:14:19.285Z,22.33
2022-08-26T07:16:51.196Z,23.75
2022-08-26T07:19:31.240Z,22.29
2022-08-26T07:22:05.069Z,22.80
2022-08-26T07:24:40.329Z,23.80
2022-08-26T07:27:14.815Z,23.00
2022-08-26T07:29:43.479Z,23.57
2022-08-26T07:32:13.124Z,23.92
2022-08-26T07:34:49.957Z,22.39
2022-08-26T07:37:17.783Z,20.27
2022-08-26T07:39:45.212Z,23.30
2022-08-26T07:42:20.958Z,23.90
2022-08-26T07:44:48.517Z,23.94
2022-08-26T07:47:25.238Z,22.92
2022-08-26T07:49:55.167Z,23.78
2022-08-26T07:52:26.176Z,23.18
2022-08-26T07:54:56.327Z,22.18
2022-08-26T07:57:28.632Z,22.90
2022-08-26T07:59:55.917Z,21.20
2022-08-26T08:02:24.670Z,22.31
2022-08-26T08:04:52.439Z,22.55
2022-08-26T08:07:19.479Z,22.11
2022-08-26T08:09:51.375Z,22.65
2022-08-26T08:12:19.808Z,22.66
2022-08-26T08:14:48.740Z,20.83
2022-08-26T08:17:16.344Z,21.14
2022-08-26T08:19:43.386Z,23.01
2022-08-26T08:22:17.149Z,19.29
2022-08-26T08:24:53.519Z,21.29
2022-08-26T08:27:23.811Z,22.85
2022-08-26T08:29:59.388Z,22.28
2022-08-26T08:32:26.864Z,21.89
2022-08-26T08:34:53.792Z,22.20
2022-08-26T08:37:20.817Z,22.44
2022-08-26T08:39:48.951Z,23.39
2022-08-26T08:42:35.403Z,22.82
2022-08-26T08:45:17.100Z,23.41
2022-08-26T08:48:27.742Z,23.15
2022-08-26T08:51:24.519Z,22.89
2022-08-26T08:53:55.050Z,23.17
2022-08-26T08:56:25.368Z,23.14
2022-08-26T08:59:11.227Z,23.14
2022-08-26T09:01:42.195Z,23.24
2022-08-26T09:04:17.189Z,23.24
2022-08-26T09:06:46.520Z,23.09
2022-08-26T09:09:23.339Z,23.14
2022-08-26T09:11:50.757Z,20.03
2022-08-26T09:14:17.964Z,23.11
2022-08-26T09:16:57.438Z,20.94
2022-08-26T09:19:35.144Z,23.03
2022-08-26T09:22:09.309Z,21.61
2022-08-26T09:24:41.862Z,23.22
2022-08-26T09:27:46.411Z,23.24
2022-08-26T09:30:37.663Z,23.21
2022-08-26T09:33:11.882Z,23.26
2022-08-26T09:35:41.634Z,23.14
2022-08-26T09:38:39.177Z,23.24
2022-08-26T09:41:24.677Z,23.17
2022-08-26T09:44:15.676Z,22.96
2022-08-26T09:46:46.545Z,23.79
2022-08-26T09:53:37.685Z,23.75
2022-08-26T10:00:01.220Z,24.05
2022-08-26T10:02:57.399Z,23.30
2022-08-26T10:05:40.923Z,23.10
2022-08-26T10:08:47.699Z,23.91
2022-08-26T10:11:36.871Z,23.92
2022-08-26T10:14:24.437Z,23.72
2022-08-26T10:17:14.414Z,24.08
2022-08-26T10:19:57.103Z,24.21
2022-08-26T10:22:36.942Z,24.01
2022-08-26T10:25:09.996Z,23.63
2022-08-26T10:27:48.416Z,23.39
2022-08-26T10:30:24.148Z,20.58
2022-08-26T10:33:07.007Z,22.72
2022-08-26T10:35:39.537Z,21.61
2022-08-26T10:38:18.366Z,22.07
2022-08-26T10:41:16.937Z,23.91
2022-08-26T10:43:57.804Z,22.77
2022-08-26T10:46:29.470Z,21.75
2022-08-26T10:49:00.529Z,24.06
2022-08-26T10:51:36.580Z,23.89
2022-08-26T10:54:17.438Z,22.28
2022-08-26T10:56:48.325Z,23.11
2022-08-26T10:59:49.099Z,24.68
2022-08-26T11:02:38.371Z,25.00
2022-08-26T11:05:19.593Z,24.84
2022-08-26T11:07:54.869Z,25.80
2022-08-26T11:10:22.595Z,24.88
2022-08-26T11:12:59.404Z,26.65
2022-08-26T11:15:28.067Z,26.89
2022-08-26T11:18:12.114Z,25.39
2022-08-26T11:20:42.343Z,26.42
2022-08-26T11:23:24.154Z,27.73
2022-08-26T11:26:12.895Z,27.59
2022-08-26T11:28:58.563Z,27.50
2022-08-26T11:31:28.457Z,27.33
2022-08-26T11:34:01.543Z,27.38
2022-08-26T11:36:49.168Z,27.57
2022-08-26T11:39:21.705Z,27.59
2022-08-26T11:41:52.670Z,27.76
2022-08-26T11:44:24.138Z,27.36
2022-08-26T11:46:59.723Z,27.86
2022-08-26T11:49:33.424Z,27.33
2022-08-26T11:52:22.473Z,25.52
2022-08-26T11:55:12.165Z,27.44
2022-08-26T11:57:43.413Z,27.59
2022-08-26T12:00:20.507Z,27.24
2022-08-26T12:02:50.192Z,27.79
2022-08-26T12:05:46.645Z,27.45
2022-08-26T12:08:23.809Z,27.30
2022-08-26T12:11:20.349Z,27.15
2022-08-26T12:13:56.257Z,24.71
2022-08-26T12:16:33.209Z,26.52
2022-08-26T12:19:32.952Z,26.17
2022-08-26T12:22:21.456Z,26.36
2022-08-26T12:24:57.658Z,26.20
2022-08-26T12:27:30.204Z,26.27
2022-08-26T12:30:13.939Z,26.31
2022-08-26T12:32:51.040Z,26.25
2022-08-26T12:35:28.946Z,26.03
2022-08-26T12:38:00.792Z,26.04
2022-08-26T12:40:58.753Z,26.11
2022-08-26T12:43:43.982Z,25.81
2022-08-26T12:46:13.647Z,25.65
2022-08-26T12:48:45.432Z,25.09
2022-08-26T12:51:24.038Z,23.98
2022-08-26T12:53:51.627Z,24.22
2022-08-26T12:56:35.277Z,25.91
2022-08-26T12:59:06.300Z,24.84
2022-08-26T13:01:43.225Z,24.71
2022-08-26T13:04:46.963Z,26.20
2022-08-26T13:07:26.369Z,26.13
2022-08-26T13:09:56.945Z,23.72
2022-08-26T13:12:32.409Z,24.60
2022-08-26T13:15:01.489Z,25.33
2022-08-26T13:17:33.032Z,26.36
2022-08-26T13:20:04.158Z,26.32
2022-08-26T13:22:31.694Z,25.74
2022-08-26T13:25:01.695Z,26.29
2022-08-26T13:27:30.570Z,26.04
2022-08-26T13:30:01.545Z,24.82
2022-08-26T13:32:32.454Z,24.54
2022-08-26T13:35:05.921Z,24.96
2022-08-26T13:37:34.893Z,26.16
2022-08-26T13:40:05.068Z,26.90
2022-08-26T13:42:34.382Z,25.53
2022-08-26T13:45:05.736Z,26.97
2022-08-26T13:47:34.074Z,24.73
2022-08-26T13:50:01.343Z,25.65
2022-08-26T13:52:37.208Z,24.42
2022-08-26T13:55:04.828Z,25.85
2022-08-26T13:57:31.943Z,26.27
2022-08-26T13:59:59.488Z,26.30
2022-08-26T14:02:30.623Z,25.17
2022-08-26T14:04:57.906Z,26.49
2022-08-26T14:07:25.103Z,26.41
2022-08-26T14:09:56.597Z,26.22
2022-08-26T14:12:23.586Z,25.97
2022-08-26T14:14:50.701Z,24.66
2022-08-26T14:17:23.073Z,25.05
2022-08-26T14:19:51.230Z,23.60
2022-08-26T14:22:21.182Z,24.25
2022-08-26T14:24:49.559Z,23.76
2022-08-26T14:27:19.191Z,24.32
2022-08-26T14:29:47.066Z,25.09
2022-08-26T14:32:27.076Z,24.67
2022-08-26T14:34:58.127Z,25.83
2022-08-26T14:37:27.435Z,24.44
2022-08-26T14:39:54.600Z,25.52
2022-08-26T14:42:31.442Z,23.88
2022-08-26T14:45:03.192Z,24.95
2022-08-26T14:47:31.169Z,24.12
2022-08-26T14:49:59.697Z,23.37
2022-08-26T14:52:50.987Z,24.13
2022-08-26T14:55:18.040Z,25.29
2022-08-26T14:57:45.043Z,23.51
2022-08-26T15:00:14.459Z,25.66
2022-08-26T15:02:46.510Z,25.50
2022-08-26T15:05:17.029Z,25.28
2022-08-26T15:07:44.531Z,26.33
2022-08-26T15:10:13.938Z,24.61
2022-08-26T15:12:41.555Z,25.75
2022-08-26T15:15:14.320Z,24.39
2022-08-26T15:17:41.709Z,25.58
2022-08-26T15:20:10.169Z,24.13
2022-08-26T15:22:38.490Z,24.79
2022-08-26T15:25:06.510Z,24.44
2022-08-26T15:27:40.746Z,24.71
2022-08-26T15:30:10.359Z,22.93
2022-08-26T15:32:46.651Z,24.04
2022-08-26T15:35:17.388Z,24.16
2022-08-26T15:37:44.281Z,24.92
2022-08-26T15:40:11.770Z,24.93
2022-08-26T15:42:41.668Z,24.91
2022-08-26T15:45:11.584Z,22.80
2022-08-26T15:48:00.911Z,21.58
2022-08-26T15:50:34.777Z,24.72
2022-08-26T15:53:04.784Z,24.54
2022-08-26T15:55:31.702Z,24.49
2022-08-26T15:57:58.745Z,24.49
2022-08-26T16:00:28.495Z,24.41
2022-08-26T16:02:55.444Z,22.63
2022-08-26T16:05:22.430Z,24.35
2022-08-26T16:07:49.449Z,24.46
2022-08-26T16:10:19.836Z,22.90
2022-08-26T16:12:46.751Z,22.69
2022-08-26T16:15:18.041Z,24.44
2022-08-26T16:17:45.583Z,22.06
2022-08-26T16:20:13.124Z,22.27
2022-08-26T16:22:40.172Z,24.30
2022-08-26T16:25:07.445Z,21.01
2022-08-26T16:27:34.482Z,20.75
2022-08-26T16:30:07.633Z,23.98
2022-08-26T16:32:34.704Z,23.60
2022-08-26T16:35:02.490Z,22.64
2022-08-26T16:37:32.504Z,23.88
2022-08-26T16:40:00.789Z,23.37
2022-08-26T16:42:27.977Z,21.98
2022-08-26T16:44:55.573Z,21.70
2022-08-26T16:47:23.194Z,21.08
2022-08-26T16:49:50.183Z,23.42
2022-08-26T16:52:17.555Z,22.51
2022-08-26T16:54:47.254Z,23.32
2022-08-26T16:57:14.259Z,22.74
2022-08-26T16:59:42.593Z,23.26
2022-08-26T17:02:11.878Z,21.88
2022-08-26T17:04:39.410Z,23.15
2022-08-26T17:07:06.232Z,21.58
2022-08-26T17:09:33.443Z,21.73
2022-08-26T17:12:00.371Z,21.75
2022-08-26T17:14:28.073Z,19.39
2022-08-26T17:16:55.045Z,22.83
2022-08-26T17:19:21.834Z,21.15
2022-08-26T17:21:52.040Z,22.55
2022-08-26T17:24:18.996Z,19.83
2022-08-26T17:26:55.491Z,22.51
2022-08-26T17:29:23.501Z,22.08
2022-08-26T17:31:50.447Z,21.42
2022-08-26T17:34:17.419Z,22.38
2022-08-26T17:36:45.588Z,22.36
2022-08-26T17:39:12.628Z,21.13
2022-08-26T17:41:43.259Z,22.44
2022-08-26T17:44:13.279Z,21.36
2022-08-26T17:46:40.202Z,21.05
2022-08-26T17:49:09.740Z,22.28
2022-08-26T17:51:38.884Z,21.55
2022-08-26T17:54:05.973Z,17.49
2022-08-26T17:56:35.817Z,22.24
2022-08-26T17:59:09.142Z,21.11
2022-08-26T18:01:41.327Z,22.22
2022-08-26T18:04:08.682Z,20.68
2022-08-26T18:06:36.661Z,20.84
2022-08-26T18:09:03.808Z,21.55
2022-08-26T18:11:33.478Z,21.50
2022-08-26T18:14:00.697Z,21.10
2022-08-26T18:16:31.347Z,22.07
2022-08-26T18:19:01.618Z,21.17
2022-08-26T18:21:31.741Z,20.72
2022-08-26T18:24:01.511Z,21.95
2022-08-26T18:26:33.457Z,21.94
2022-08-26T18:29:02.046Z,20.20
2022-08-26T18:31:30.005Z,20.56
2022-08-26T18:34:00.860Z,21.21
2022-08-26T18:36:30.599Z,21.84
2022-08-26T18:38:58.113Z,20.52
2022-08-26T18:41:27.720Z,19.34
2022-08-26T18:43:58.293Z,20.83
2022-08-26T18:46:27.237Z,21.46
2022-08-26T18:48:55.819Z,21.82
2022-08-26T18:51:29.704Z,20.20
2022-08-26T18:53:57.811Z,21.37
2022-08-26T18:56:24.780Z,21.94
2022-08-26T18:58:53.111Z,20.70
2022-08-26T19:01:23.240Z,20.13
2022-08-26T19:04:01.256Z,20.75
2022-08-26T19:06:31.676Z,22.03
2022-08-26T19:08:59.793Z,22.00
2022-08-26T19:11:32.582Z,21.65
2022-08-26T19:14:11.193Z,19.26
2022-08-26T19:16:42.668Z,22.03
2022-08-26T19:19:13.073Z,21.97
2022-08-26T19:21:40.371Z,21.77
2022-08-26T19:24:15.260Z,21.85
2022-08-26T19:26:49.700Z,21.91
2022-08-26T19:29:23.389Z,21.23
2022-08-26T19:31:50.526Z,21.07
2022-08-26T19:34:20.710Z,21.91
2022-08-26T19:36:48.851Z,19.83
2022-08-26T19:39:16.724Z,20.54
2022-08-26T19:41:44.613Z,20.85
2022-08-26T19:44:37.238Z,21.88
2022-08-26T19:47:05.879Z,21.81
2022-08-26T19:49:33.008Z,20.68
2022-08-26T19:52:05.582Z,20.44
2022-08-26T19:54:34.613Z,21.68
2022-08-26T19:57:01.567Z,21.65
2022-08-26T19:59:29.242Z,21.56
2022-08-26T20:02:00.547Z,21.68
2022-08-26T20:04:30.196Z,21.20
2022-08-26T20:07:00.495Z,21.65
2022-08-26T20:09:30.190Z,21.57
2022-08-26T20:12:03.046Z,21.56
2022-08-26T20:14:30.212Z,19.65
2022-08-26T20:17:03.691Z,20.76
2022-08-26T20:19:50.590Z,19.81
2022-08-26T20:22:18.138Z,21.45
2022-08-26T20:24:51.859Z,19.93
2022-08-26T20:27:19.651Z,21.08
2022-08-26T20:29:49.135Z,19.97
2022-08-26T20:32:18.591Z,19.43
2022-08-26T20:34:45.511Z,21.07
2022-08-26T20:37:12.581Z,21.47
2022-08-26T20:39:41.532Z,18.87
2022-08-26T20:42:19.800Z,21.46
2022-08-26T20:44:54.293Z,20.30
2022-08-26T20:47:22.054Z,18.73
2022-08-26T20:49:49.015Z,20.10
2022-08-26T20:52:20.057Z,19.92
2022-08-26T20:54:47.030Z,21.27
2022-08-26T20:57:14.734Z,19.57
2022-08-26T20:59:41.770Z,20.74
2022-08-26T21:02:10.062Z,20.25
2022-08-26T21:04:37.002Z,18.85
2022-08-26T21:07:05.669Z,21.29
2022-08-26T21:09:32.937Z,21.21
2022-08-26T21:12:03.032Z,20.78
2022-08-26T21:14:30.130Z,21.26
2022-08-26T21:16:57.116Z,19.87
2022-08-26T21:19:27.142Z,20.78
2022-08-26T21:22:02.553Z,19.81
2022-08-26T21:24:29.776Z,20.81
2022-08-26T21:27:26.231Z,21.12
2022-08-26T21:29:58.430Z,21.15
2022-08-26T21:32:26.763Z,21.14
2022-08-26T21:34:55.937Z,21.08
2022-08-26T21:37:25.048Z,21.12
2022-08-26T21:39:58.026Z,20.71
2022-08-26T21:42:26.548Z,21.05
2022-08-26T21:44:54.087Z,21.06
2022-08-26T21:47:22.206Z,20.61
2022-08-26T21:49:49.256Z,20.56
2022-08-26T21:52:20.117Z,20.40
2022-08-26T21:54:50.256Z,19.83
2022-08-26T21:57:17.608Z,19.57
2022-08-26T21:59:44.540Z,20.08
2022-08-26T22:02:12.695Z,20.09
2022-08-26T22:04:39.684Z,21.08
2022-08-26T22:07:07.314Z,20.24
2022-08-26T22:09:37.026Z,21.01
2022-08-26T22:12:08.819Z,19.64
2022-08-26T22:14:36.314Z,21.02
2022-08-26T22:17:03.285Z,18.51
2022-08-26T22:19:31.914Z,20.02
2022-08-26T22:22:03.445Z,20.89
2022-08-26T22:24:33.506Z,19.41
2022-08-26T22:27:05.547Z,19.45
2022-08-26T22:29:36.137Z,19.95
2022-08-26T22:32:03.554Z,17.57
2022-08-26T22:34:30.585Z,20.10
2022-08-26T22:36:57.669Z,18.70
2022-08-26T22:39:25.948Z,20.00
2022-08-26T22:41:54.560Z,19.39
2022-08-26T22:44:22.191Z,19.57
2022-08-26T22:46:51.459Z,19.69
2022-08-26T22:49:18.446Z,18.94
2022-08-26T22:51:45.877Z,18.15
2022-08-26T22:54:13.733Z,18.39
2022-08-26T22:56:41.047Z,18.64
2022-08-26T22:59:10.613Z,16.33
2022-08-26T23:01:40.358Z,19.31
2022-08-26T23:04:11.070Z,18.47
2022-08-26T23:06:47.421Z,19.28
2022-08-26T23:09:17.940Z,18.26
2022-08-26T23:11:46.308Z,19.18
2022-08-26T23:14:13.278Z,18.28
2022-08-26T23:16:43.948Z,19.09
2022-08-26T23:19:12.903Z,17.71
2022-08-26T23:21:40.152Z,18.40
2022-08-26T23:24:09.679Z,18.33
2022-08-26T23:26:37.503Z,19.17
2022-08-26T23:29:07.022Z,17.44
2022-08-26T23:31:34.306Z,18.16
2022-08-26T23:34:20.810Z,19.13
